首页
METAR-TAF:

METAR-TAF

机场 :

努美阿國際機場, 新喀里多尼亚

纬度: 22-01S, 经度: 166-13E, 海拔: 16米

当前天气观测

该预报发布于21分钟前的04:00 UTC
风速12节,风向
温度 23°C
湿度 50%
气压 1016 hPa
能见度10公里或以上
1500米以下无云,无积雨云

METAR: NWWW 230400Z AUTO 17012KT CAVOK 23/12 Q1016 NOSIG

时间: 15:21 (04:21 UTC)

预报

该预报发布于5小时和21分钟前的23:00 UTC
预报有效从23日的 00点(UTC)到 23日的 24点(UTC)
风速12节,风向东南
能见度10公里或以上
散云层高于5000英尺
几率 40% :
短暂存在
从 23日的 00点(UTC)到 23日的 03点(UTC)
阵雨
成为
从 23日的 06点(UTC)到 23日的 08点(UTC)
风速2节,风向多变
成为
从 23日的 22点(UTC)到 23日的 24点(UTC)
风速10节,风向南转南东

TAF: NWWW 222300Z 2300/2324 14012KT 9999 SCT050 PROB40 TEMPO 2300/2303 SHRA BECMG 2306/2308 VRB02KT BECMG 2322/2324 16010KT

超过4000个机场的气象观测和天气预报(METAR&TAF报告)。

可查询的气象台以黄色和红色小点在地图上表示。

将鼠标移到小点上方,可查看气象台名称。

然后点击查看天气观测和预报。

如需切换地图:点击带黑十字的绿色按钮放大地图;点击带横线的绿色按钮缩小地图;或者点击绿色箭头查看邻近地区的地图。


METAR-TAF: